createdAt,value
2018-09-15T00:00:14.794Z,16.16
2018-09-15T00:02:43.779Z,16.13
2018-09-15T00:05:12.885Z,16.09
2018-09-15T00:07:41.680Z,16.07
2018-09-15T00:10:10.734Z,16.02
2018-09-15T00:12:39.494Z,15.99
2018-09-15T00:15:09.191Z,15.95
2018-09-15T00:17:38.915Z,15.93
2018-09-15T00:20:07.916Z,15.90
2018-09-15T00:22:36.675Z,15.85
2018-09-15T00:25:06.306Z,15.77
2018-09-15T00:27:35.107Z,15.75
2018-09-15T00:30:04.388Z,15.74
2018-09-15T00:32:33.122Z,15.72
2018-09-15T00:35:01.844Z,15.72
2018-09-15T00:37:30.952Z,15.74
2018-09-15T00:39:59.764Z,15.72
2018-09-15T00:42:28.889Z,15.66
2018-09-15T00:44:57.678Z,15.57
2018-09-15T00:47:26.388Z,15.52
2018-09-15T00:49:55.380Z,15.51
2018-09-15T00:52:24.511Z,15.50
2018-09-15T00:54:53.323Z,15.49
2018-09-15T00:57:22.122Z,15.51
2018-09-15T00:59:51.155Z,15.46
2018-09-15T01:02:20.147Z,15.41
2018-09-15T01:04:49.175Z,15.36
2018-09-15T01:07:18.275Z,15.38
2018-09-15T01:09:47.371Z,15.42
2018-09-15T01:12:16.466Z,15.49
2018-09-15T01:14:45.820Z,15.49
2018-09-15T01:17:14.818Z,15.50
2018-09-15T01:19:43.824Z,15.49
2018-09-15T01:22:12.965Z,15.46
2018-09-15T01:24:42.025Z,15.46
2018-09-15T01:27:11.360Z,15.50
2018-09-15T01:29:40.307Z,15.55
2018-09-15T01:32:09.106Z,15.55
2018-09-15T01:34:37.791Z,15.44
2018-09-15T01:37:07.428Z,15.39
2018-09-15T01:39:36.167Z,15.32
2018-09-15T01:42:04.877Z,15.26
2018-09-15T01:44:33.674Z,15.22
2018-09-15T01:47:02.689Z,15.21
2018-09-15T01:49:31.886Z,15.18
2018-09-15T01:52:01.514Z,15.11
2018-09-15T01:54:30.537Z,15.04
2018-09-15T01:56:59.322Z,15.05
2018-09-15T01:59:28.341Z,15.08
2018-09-15T02:01:57.375Z,15.13
2018-09-15T02:04:26.478Z,15.16
2018-09-15T02:06:55.467Z,15.14
2018-09-15T02:09:24.876Z,15.14
2018-09-15T02:11:53.974Z,15.08
2018-09-15T02:14:22.816Z,15.09
2018-09-15T02:16:51.594Z,15.00
2018-09-15T02:19:20.686Z,14.95
2018-09-15T02:21:49.591Z,14.82
2018-09-15T02:24:18.743Z,14.79
2018-09-15T02:26:48.252Z,14.78
2018-09-15T02:29:17.449Z,14.71
2018-09-15T02:31:46.507Z,14.69
2018-09-15T02:34:15.909Z,14.68
2018-09-15T02:36:45.378Z,14.66
2018-09-15T02:39:15.057Z,14.63
2018-09-15T02:41:44.465Z,14.58
2018-09-15T02:44:13.212Z,14.48
2018-09-15T02:46:42.118Z,14.46
2018-09-15T02:49:11.239Z,14.46
2018-09-15T02:51:40.039Z,14.51
2018-09-15T02:54:09.153Z,14.50
2018-09-15T02:56:37.914Z,14.51
2018-09-15T02:59:07.140Z,14.52
2018-09-15T03:01:35.821Z,14.52
2018-09-15T03:04:05.125Z,14.50
2018-09-15T03:06:34.315Z,14.41
2018-09-15T03:09:03.188Z,14.31
2018-09-15T03:11:32.842Z,14.26
2018-09-15T03:14:01.714Z,14.20
2018-09-15T03:16:30.605Z,14.21
2018-09-15T03:18:59.400Z,14.16
2018-09-15T03:21:28.156Z,14.10
2018-09-15T03:23:56.947Z,14.08
2018-09-15T03:26:25.969Z,14.04
2018-09-15T03:28:54.725Z,14.02
2018-09-15T03:31:23.794Z,14.00
2018-09-15T03:33:52.638Z,13.97
2018-09-15T03:36:21.881Z,13.97
2018-09-15T03:38:50.869Z,13.97
2018-09-15T03:41:20.302Z,13.97
2018-09-15T03:43:49.582Z,13.94
2018-09-15T03:46:18.399Z,13.91
2018-09-15T03:48:47.934Z,13.90
2018-09-15T03:51:16.897Z,13.88
2018-09-15T03:53:45.951Z,13.91
2018-09-15T03:56:15.012Z,13.88
2018-09-15T03:58:44.115Z,13.90
2018-09-15T04:01:12.970Z,13.91
2018-09-15T04:03:42.109Z,13.94
2018-09-15T04:06:10.855Z,13.91
2018-09-15T04:08:39.658Z,13.88
2018-09-15T04:11:08.787Z,13.89
2018-09-15T04:13:37.513Z,13.85
2018-09-15T04:16:06.243Z,13.89
2018-09-15T04:18:35.785Z,13.88
2018-09-15T04:21:04.970Z,13.92
2018-09-15T04:23:33.685Z,13.93
2018-09-15T04:26:03.351Z,13.98
2018-09-15T04:28:32.077Z,14.03
2018-09-15T04:31:00.900Z,14.08
2018-09-15T04:33:30.037Z,14.12
2018-09-15T04:35:58.798Z,14.12
2018-09-15T04:38:28.113Z,14.11
2018-09-15T04:40:57.524Z,14.16
2018-09-15T04:43:26.343Z,14.16
2018-09-15T04:45:55.411Z,14.21
2018-09-15T04:48:24.211Z,14.27
2018-09-15T04:50:53.204Z,14.27
2018-09-15T04:53:21.973Z,14.28
2018-09-15T04:55:50.752Z,14.30
2018-09-15T04:58:19.611Z,14.34
2018-09-15T05:00:49.084Z,14.36
2018-09-15T05:03:17.911Z,14.33
2018-09-15T05:05:46.790Z,14.35
2018-09-15T05:08:17.529Z,14.34
2018-09-15T05:10:46.654Z,14.32
2018-09-15T05:13:15.449Z,14.30
2018-09-15T05:15:44.406Z,14.32
2018-09-15T05:18:13.241Z,14.32
2018-09-15T05:20:42.327Z,14.33
2018-09-15T05:23:11.498Z,14.36
2018-09-15T05:25:40.569Z,14.39
2018-09-15T05:28:09.557Z,14.40
2018-09-15T05:30:38.446Z,14.41
2018-09-15T05:33:07.284Z,14.41
2018-09-15T05:35:36.350Z,14.45
2018-09-15T05:38:05.082Z,14.40
2018-09-15T05:40:34.091Z,14.37
2018-09-15T05:43:03.159Z,14.41
2018-09-15T05:45:31.968Z,14.45
2018-09-15T05:48:00.985Z,14.50
2018-09-15T05:50:29.774Z,14.57
2018-09-15T05:52:58.799Z,14.66
2018-09-15T05:55:27.957Z,14.68
2018-09-15T05:57:57.065Z,14.66
2018-09-15T06:00:26.249Z,14.67
2018-09-15T06:02:54.978Z,14.74
2018-09-15T06:05:23.807Z,14.81
2018-09-15T06:07:52.638Z,14.85
2018-09-15T06:10:21.511Z,14.87
2018-09-15T06:12:50.637Z,14.92
2018-09-15T06:15:19.426Z,14.97
2018-09-15T06:17:48.262Z,15.00
2018-09-15T06:20:17.011Z,15.03
2018-09-15T06:22:46.231Z,15.07
2018-09-15T06:25:14.980Z,15.10
2018-09-15T06:27:44.030Z,15.06
2018-09-15T06:30:12.910Z,15.08
2018-09-15T06:32:42.057Z,15.06
2018-09-15T06:35:11.408Z,15.02
2018-09-15T06:37:40.317Z,14.99
2018-09-15T06:40:09.096Z,14.98
2018-09-15T06:42:38.203Z,15.01
2018-09-15T06:45:07.766Z,15.06
2018-09-15T06:47:36.582Z,15.12
2018-09-15T06:50:06.324Z,15.23
2018-09-15T06:52:35.182Z,15.30
2018-09-15T06:55:04.073Z,15.37
2018-09-15T06:57:33.143Z,15.43
2018-09-15T07:00:02.105Z,15.67
2018-09-15T07:02:31.133Z,15.85
2018-09-15T07:05:00.250Z,15.92
2018-09-15T07:07:29.457Z,15.98
2018-09-15T07:09:58.485Z,15.96
2018-09-15T07:12:27.892Z,16.14
2018-09-15T07:14:57.090Z,16.31
2018-09-15T07:17:26.208Z,16.43
2018-09-15T07:19:55.905Z,16.31
2018-09-15T07:22:25.445Z,16.43
2018-09-15T07:24:54.345Z,16.50
2018-09-15T07:27:23.704Z,16.55
2018-09-15T07:29:52.690Z,16.56
2018-09-15T07:32:22.170Z,16.72
2018-09-15T07:34:51.616Z,16.88
2018-09-15T07:37:20.783Z,17.03
2018-09-15T07:39:49.772Z,17.18
2018-09-15T07:42:19.071Z,17.18
2018-09-15T07:44:48.748Z,17.15
2018-09-15T07:47:17.763Z,17.10
2018-09-15T07:49:47.100Z,17.04
2018-09-15T07:52:16.122Z,17.10
2018-09-15T07:54:45.294Z,17.07
2018-09-15T07:57:14.346Z,17.16
2018-09-15T07:59:44.418Z,17.37
2018-09-15T08:02:24.118Z,17.62
2018-09-15T08:04:54.358Z,17.75
2018-09-15T08:07:26.553Z,17.72
2018-09-15T08:09:56.933Z,17.68
2018-09-15T08:12:33.643Z,17.82
2018-09-15T08:15:05.078Z,18.01
2018-09-15T08:17:35.477Z,18.23
2018-09-15T08:20:05.179Z,18.41
2018-09-15T08:22:37.036Z,18.44
2018-09-15T08:25:07.009Z,18.45
2018-09-15T08:27:38.851Z,18.43
2018-09-15T08:30:09.949Z,18.65
2018-09-15T08:32:39.577Z,18.85
2018-09-15T08:35:09.386Z,19.19
2018-09-15T08:37:40.419Z,19.45
2018-09-15T08:40:09.488Z,19.64
2018-09-15T08:42:39.021Z,19.78
2018-09-15T08:45:15.170Z,19.91
2018-09-15T08:47:45.179Z,19.76
2018-09-15T08:50:17.229Z,20.16
2018-09-15T08:52:52.931Z,20.52
2018-09-15T08:55:23.194Z,20.95
2018-09-15T08:57:54.853Z,21.36
2018-09-15T09:00:23.710Z,21.72
2018-09-15T09:02:53.405Z,21.60
2018-09-15T09:05:22.297Z,21.28
2018-09-15T09:07:51.083Z,20.96
2018-09-15T09:10:20.240Z,20.76
2018-09-15T09:12:49.190Z,20.72
2018-09-15T09:15:17.884Z,20.90
2018-09-15T09:17:47.171Z,20.62
2018-09-15T09:20:17.142Z,20.48
2018-09-15T09:22:47.224Z,19.90
2018-09-15T09:25:17.238Z,19.32
2018-09-15T09:27:46.039Z,18.97
2018-09-15T09:30:14.852Z,18.83
2018-09-15T09:32:43.594Z,18.68
2018-09-15T09:35:12.863Z,18.75
2018-09-15T09:37:41.694Z,19.04
2018-09-15T09:40:10.518Z,19.23
2018-09-15T09:42:39.414Z,19.47
2018-09-15T09:45:08.727Z,19.72
2018-09-15T09:47:37.986Z,19.38
2018-09-15T09:50:07.282Z,19.39
2018-09-15T09:52:36.360Z,19.36
2018-09-15T09:55:05.472Z,19.40
2018-09-15T09:57:34.863Z,19.41
2018-09-15T10:00:04.006Z,19.55
2018-09-15T10:02:32.822Z,19.48
2018-09-15T10:05:01.622Z,19.41
2018-09-15T10:07:31.052Z,19.43
2018-09-15T10:10:00.151Z,19.48
2018-09-15T10:12:29.271Z,19.62
2018-09-15T10:14:59.013Z,19.83
2018-09-15T10:17:28.360Z,20.01
2018-09-15T10:19:57.205Z,19.84
2018-09-15T10:22:27.044Z,19.85
2018-09-15T10:24:55.916Z,19.75
2018-09-15T10:27:24.802Z,19.64
2018-09-15T10:29:54.259Z,19.80
2018-09-15T10:32:23.123Z,19.93
2018-09-15T10:34:52.011Z,20.14
2018-09-15T10:37:21.209Z,20.40
2018-09-15T10:39:50.386Z,20.39
2018-09-15T10:42:19.476Z,20.45
2018-09-15T10:44:48.651Z,20.88
2018-09-15T10:47:17.571Z,21.05
2018-09-15T10:49:46.865Z,20.92
2018-09-15T10:52:16.206Z,21.08
2018-09-15T10:54:45.062Z,21.26
2018-09-15T10:57:14.167Z,21.38
2018-09-15T10:59:43.269Z,21.30
2018-09-15T11:02:14.809Z,21.43
2018-09-15T11:04:46.527Z,21.23
2018-09-15T11:07:16.556Z,21.05
2018-09-15T11:09:45.473Z,20.72
2018-09-15T11:12:14.791Z,20.58
2018-09-15T11:14:43.539Z,20.70
2018-09-15T11:17:12.411Z,20.83
2018-09-15T11:19:41.167Z,20.83
2018-09-15T11:22:10.042Z,21.03
2018-09-15T11:24:39.132Z,20.87
2018-09-15T11:27:08.812Z,21.10
2018-09-15T11:29:37.781Z,21.04
2018-09-15T11:32:07.119Z,20.93
2018-09-15T11:34:36.619Z,20.67
2018-09-15T11:37:05.932Z,20.56
2018-09-15T11:39:34.997Z,20.48
2018-09-15T11:42:04.233Z,20.57
2018-09-15T11:44:33.016Z,20.56
2018-09-15T11:47:01.963Z,20.55
2018-09-15T11:49:31.535Z,20.54
2018-09-15T11:52:00.913Z,21.31
2018-09-15T11:54:30.261Z,21.94
2018-09-15T11:57:00.947Z,21.83
2018-09-15T11:59:30.280Z,21.98
2018-09-15T12:01:59.294Z,21.79
2018-09-15T12:04:28.358Z,21.33
2018-09-15T12:07:03.003Z,20.96
2018-09-15T12:09:36.711Z,20.69
2018-09-15T12:12:07.671Z,20.36
2018-09-15T12:14:39.847Z,20.19
2018-09-15T12:17:10.261Z,20.36
2018-09-15T12:19:39.220Z,21.09
2018-09-15T12:22:08.042Z,22.65
2018-09-15T12:24:37.335Z,24.42
2018-09-15T12:27:06.456Z,26.11
2018-09-15T12:29:35.709Z,25.86
2018-09-15T12:32:04.803Z,24.45
2018-09-15T12:34:33.754Z,23.98
2018-09-15T12:37:02.910Z,23.63
2018-09-15T12:39:32.490Z,23.51
2018-09-15T12:42:02.531Z,23.13
2018-09-15T12:44:31.692Z,23.02
2018-09-15T12:47:01.108Z,23.04
2018-09-15T12:49:30.321Z,22.72
2018-09-15T12:51:59.717Z,22.66
2018-09-15T12:54:28.825Z,22.42
2018-09-15T12:56:57.997Z,22.21
2018-09-15T12:59:27.304Z,22.14
2018-09-15T13:01:56.539Z,22.02
2018-09-15T13:04:25.539Z,21.69
2018-09-15T13:06:54.927Z,21.37
2018-09-15T13:09:23.898Z,21.50
2018-09-15T13:11:52.771Z,21.38
2018-09-15T13:14:22.074Z,21.24
2018-09-15T13:16:51.199Z,21.07
2018-09-15T13:19:20.636Z,20.85
2018-09-15T13:21:49.644Z,20.63
2018-09-15T13:24:18.569Z,20.44
2018-09-15T13:26:48.112Z,20.36
2018-09-15T13:29:20.208Z,20.17
2018-09-15T13:31:54.380Z,20.09
2018-09-15T13:34:28.700Z,20.06
2018-09-15T13:36:59.061Z,20.04
2018-09-15T13:39:28.680Z,20.15
2018-09-15T13:42:00.173Z,20.39
2018-09-15T13:44:29.804Z,20.63
2018-09-15T13:46:58.909Z,20.96
2018-09-15T13:49:27.806Z,21.14
2018-09-15T13:52:04.058Z,21.33
2018-09-15T13:54:34.932Z,21.37
2018-09-15T13:57:03.949Z,21.50
2018-09-15T13:59:32.880Z,21.54
2018-09-15T14:02:02.132Z,21.41
2018-09-15T14:04:32.131Z,21.20
2018-09-15T14:07:01.449Z,21.26
2018-09-15T14:09:31.169Z,21.11
2018-09-15T14:12:00.719Z,21.16
2018-09-15T14:14:30.041Z,21.07
2018-09-15T14:16:59.700Z,20.84
2018-09-15T14:24:18.412Z,20.53
2018-09-15T14:26:47.561Z,20.37
2018-09-15T14:29:16.452Z,20.26
2018-09-15T14:31:45.614Z,20.23
2018-09-15T14:34:14.599Z,20.18
2018-09-15T14:36:43.757Z,20.10
2018-09-15T14:39:13.613Z,20.08
2018-09-15T14:41:42.729Z,20.01
2018-09-15T14:44:15.376Z,20.02
2018-09-15T14:46:44.601Z,20.01
2018-09-15T14:49:13.321Z,20.07
2018-09-15T14:51:44.893Z,20.16
2018-09-15T14:54:14.117Z,20.19
2018-09-15T14:56:43.218Z,20.19
2018-09-15T14:59:12.201Z,20.20
2018-09-15T15:01:42.006Z,20.20
2018-09-15T15:04:11.236Z,20.25
2018-09-15T15:06:40.537Z,20.27
2018-09-15T15:09:10.588Z,20.31
2018-09-15T15:11:39.909Z,20.30
2018-09-15T15:14:10.373Z,20.28
2018-09-15T15:16:39.567Z,20.20
2018-09-15T15:19:09.430Z,20.13
2018-09-15T15:21:38.326Z,20.03
2018-09-15T15:24:07.642Z,20.03
2018-09-15T15:26:37.023Z,20.01
2018-09-15T15:29:06.050Z,19.99
2018-09-15T15:31:36.003Z,19.98
2018-09-15T15:34:05.368Z,20.00
2018-09-15T15:36:34.526Z,19.99
2018-09-15T15:39:03.941Z,19.92
2018-09-15T15:41:33.358Z,19.88
2018-09-15T15:44:02.341Z,19.84
2018-09-15T15:46:31.547Z,19.78
2018-09-15T15:49:01.099Z,19.76
2018-09-15T15:51:30.084Z,19.77
2018-09-15T15:53:58.945Z,19.78
2018-09-15T15:56:29.870Z,19.80
2018-09-15T15:59:01.207Z,19.70
2018-09-15T16:01:30.121Z,19.62
2018-09-15T16:04:00.504Z,19.62
2018-09-15T16:06:29.424Z,19.59
2018-09-15T16:08:58.527Z,19.60
2018-09-15T16:11:27.750Z,19.53
2018-09-15T16:13:56.782Z,19.48
2018-09-15T16:16:26.231Z,19.48
2018-09-15T16:18:55.422Z,19.42
2018-09-15T16:21:24.886Z,19.38
2018-09-15T16:23:53.666Z,19.36
2018-09-15T16:26:23.789Z,19.34
2018-09-15T16:28:54.433Z,19.33
2018-09-15T16:31:24.183Z,19.30
2018-09-15T16:33:53.484Z,19.29
2018-09-15T16:36:22.750Z,19.30
2018-09-15T16:38:51.682Z,19.29
2018-09-15T16:41:20.738Z,19.29
2018-09-15T16:43:50.027Z,19.24
2018-09-15T16:46:19.497Z,19.20
2018-09-15T16:48:52.860Z,19.19
2018-09-15T16:51:21.914Z,19.21
2018-09-15T16:53:51.163Z,19.17
2018-09-15T16:56:19.959Z,19.11
2018-09-15T16:58:49.448Z,19.04
2018-09-15T17:01:18.479Z,18.91
2018-09-15T17:03:47.673Z,18.84
2018-09-15T17:06:16.566Z,18.78
2018-09-15T17:08:45.797Z,18.74
2018-09-15T17:11:14.766Z,18.68
2018-09-15T17:13:43.606Z,18.67
2018-09-15T17:16:12.516Z,18.64
2018-09-15T17:18:41.373Z,18.61
2018-09-15T17:21:10.142Z,18.60
2018-09-15T17:23:38.839Z,18.62
2018-09-15T17:26:08.509Z,18.60
2018-09-15T17:28:37.262Z,18.59
2018-09-15T17:31:06.459Z,18.56
2018-09-15T17:33:35.991Z,18.52
2018-09-15T17:36:11.469Z,18.52
2018-09-15T17:38:40.330Z,18.49
2018-09-15T17:41:09.340Z,18.46
2018-09-15T17:43:39.809Z,18.41
2018-09-15T17:46:09.565Z,18.35
2018-09-15T17:48:38.418Z,18.32
2018-09-15T17:51:07.540Z,18.32
2018-09-15T17:53:36.360Z,18.27
2018-09-15T17:56:05.248Z,18.23
2018-09-15T17:58:34.033Z,18.20
2018-09-15T18:01:04.111Z,18.16
2018-09-15T18:03:33.286Z,18.13
2018-09-15T18:06:02.892Z,18.14
2018-09-15T18:08:32.075Z,18.10
2018-09-15T18:11:01.430Z,18.10
2018-09-15T18:13:30.413Z,18.06
2018-09-15T18:15:59.738Z,18.02
2018-09-15T18:18:31.195Z,17.99
2018-09-15T18:21:00.405Z,17.99
2018-09-15T18:23:29.799Z,18.01
2018-09-15T18:25:58.966Z,18.06
2018-09-15T18:28:34.653Z,18.13
2018-09-15T18:31:06.979Z,18.17
2018-09-15T18:33:35.980Z,18.20
2018-09-15T18:36:06.762Z,18.23
2018-09-15T18:38:35.981Z,18.31
2018-09-15T18:41:05.453Z,18.35
2018-09-15T18:43:34.387Z,18.33
2018-09-15T18:46:03.557Z,18.30
2018-09-15T18:48:32.594Z,18.31
2018-09-15T18:51:01.631Z,18.30
2018-09-15T18:53:36.642Z,18.28
2018-09-15T18:56:05.962Z,18.26
2018-09-15T18:58:35.277Z,18.25
2018-09-15T19:01:04.655Z,18.28
2018-09-15T19:03:33.545Z,18.27
2018-09-15T19:06:02.696Z,18.27
2018-09-15T19:08:31.523Z,18.24
2018-09-15T19:11:00.681Z,18.25
2018-09-15T19:13:30.674Z,18.23
2018-09-15T19:16:00.867Z,18.23
2018-09-15T19:18:29.733Z,18.23
2018-09-15T19:20:58.767Z,18.19
2018-09-15T19:23:28.262Z,18.18
2018-09-15T19:25:57.149Z,18.15
2018-09-15T19:28:26.735Z,18.15
2018-09-15T19:30:55.729Z,18.12
2018-09-15T19:33:24.786Z,18.11
2018-09-15T19:35:53.619Z,18.14
2018-09-15T19:38:22.458Z,18.11
2018-09-15T19:40:51.394Z,18.07
2018-09-15T19:43:20.902Z,18.06
2018-09-15T19:45:50.101Z,18.04
2018-09-15T19:48:19.272Z,18.05
2018-09-15T19:50:48.764Z,18.02
2018-09-15T19:53:18.215Z,17.91
2018-09-15T19:55:47.348Z,17.82
2018-09-15T19:58:17.533Z,17.78
2018-09-15T20:00:46.863Z,17.70
2018-09-15T20:03:15.793Z,17.62
2018-09-15T20:05:44.618Z,17.54
2018-09-15T20:08:13.334Z,17.45
2018-09-15T20:10:42.430Z,17.30
2018-09-15T20:13:11.774Z,17.11
2018-09-15T20:15:39.795Z,16.94
2018-09-15T20:18:07.250Z,16.84
2018-09-15T20:20:34.844Z,16.76
2018-09-15T20:23:04.016Z,16.70
2018-09-15T20:25:33.246Z,16.66
2018-09-15T20:28:02.367Z,16.62
2018-09-15T20:30:31.858Z,16.65
2018-09-15T20:33:00.881Z,16.60
2018-09-15T20:35:30.009Z,16.60
2018-09-15T20:37:59.020Z,16.64
2018-09-15T20:40:28.723Z,16.65
2018-09-15T20:42:57.516Z,16.68
2018-09-15T20:45:26.525Z,16.70
2018-09-15T20:47:55.751Z,16.69
2018-09-15T20:50:25.272Z,16.69
2018-09-15T20:52:54.181Z,16.68
2018-09-15T20:55:22.866Z,16.62
2018-09-15T20:57:52.032Z,16.58
2018-09-15T21:00:22.181Z,16.60
2018-09-15T21:02:51.620Z,16.60
2018-09-15T21:05:21.165Z,16.61
2018-09-15T21:07:49.950Z,16.60
2018-09-15T21:10:18.758Z,16.60
2018-09-15T21:12:48.095Z,16.58
2018-09-15T21:15:17.700Z,16.54
2018-09-15T21:17:47.581Z,16.52
2018-09-15T21:20:17.786Z,16.49
2018-09-15T21:22:48.569Z,16.48
2018-09-15T21:25:17.765Z,16.46
2018-09-15T21:27:46.686Z,16.40
2018-09-15T21:30:15.810Z,16.33
2018-09-15T21:32:44.907Z,16.23
2018-09-15T21:35:13.727Z,16.15
2018-09-15T21:37:42.815Z,16.13
2018-09-15T21:40:12.508Z,16.06
2018-09-15T21:42:45.773Z,15.93
2018-09-15T21:45:15.442Z,15.90
2018-09-15T21:47:44.612Z,15.89
2018-09-15T21:50:13.714Z,15.80
2018-09-15T21:52:43.196Z,15.78
2018-09-15T21:55:12.055Z,15.77
2018-09-15T21:57:41.504Z,15.78
2018-09-15T22:00:12.365Z,15.76
2018-09-15T22:02:42.093Z,15.73
2018-09-15T22:05:11.364Z,15.78
2018-09-15T22:07:40.578Z,15.79
2018-09-15T22:10:09.713Z,15.69
2018-09-15T22:12:38.737Z,15.66
2018-09-15T22:15:12.341Z,15.63
2018-09-15T22:17:41.160Z,15.57
2018-09-15T22:20:10.547Z,15.52
2018-09-15T22:22:40.447Z,15.41
2018-09-15T22:25:09.673Z,15.29
2018-09-15T22:27:38.869Z,15.26
2018-09-15T22:30:08.852Z,15.33
2018-09-15T22:32:38.088Z,15.37
2018-09-15T22:35:07.501Z,15.42
2018-09-15T22:37:36.993Z,15.45
2018-09-15T22:40:06.383Z,15.48
2018-09-15T22:42:35.172Z,15.43
2018-09-15T22:45:04.257Z,15.44
2018-09-15T22:47:34.594Z,15.38
2018-09-15T22:50:04.084Z,15.37
2018-09-15T22:52:33.419Z,15.34
2018-09-15T22:55:02.616Z,15.38
2018-09-15T22:57:31.880Z,15.43
2018-09-15T23:00:00.708Z,15.44
2018-09-15T23:02:29.987Z,15.37
2018-09-15T23:04:59.495Z,15.32
2018-09-15T23:07:28.432Z,15.27
2018-09-15T23:09:57.478Z,15.17
2018-09-15T23:12:26.800Z,15.13
2018-09-15T23:14:55.645Z,15.08
2018-09-15T23:17:24.569Z,15.02
2018-09-15T23:19:53.307Z,15.08
2018-09-15T23:22:22.335Z,15.15
2018-09-15T23:24:51.283Z,15.17
2018-09-15T23:27:20.868Z,15.13
2018-09-15T23:29:50.847Z,15.03
2018-09-15T23:32:19.877Z,15.02
2018-09-15T23:34:48.594Z,14.97
2018-09-15T23:37:17.409Z,14.92
2018-09-15T23:39:46.356Z,14.90
2018-09-15T23:42:15.498Z,14.88
2018-09-15T23:44:44.360Z,14.86
2018-09-15T23:47:13.154Z,14.83
2018-09-15T23:49:42.614Z,14.91
2018-09-15T23:52:11.429Z,14.98
2018-09-15T23:54:40.422Z,15.02
2018-09-15T23:57:09.163Z,15.04
2018-09-15T23:59:38.793Z,15.08
